Jackson Hawkins Field, MS

1:51 AM CST on February 21, 2018 (GMT -0600)
Hawkins

Weather History for KHKS - September, 2013

Change the Weather History Date:

Saturday, September 21, 2013

  Actual Average (KJAN) Record (KJAN)
Temperature  
Mean Temperature 73 °F -  
Max Temperature 80 °F 86 °F 105 °F (1925)
Min Temperature 66 °F 63 °F 43 °F (1918)
Cooling Degree Days 8    
Growing Degree Days 23 (Base 50)    
Moisture  
Dew Point 69 °F    
Average Humidity 89    
Maximum Humidity 100    
Minimum Humidity 65    
Precipitation  
Precipitation 3.40 in - - ()
Sea Level Pressure  
Sea Level Pressure 29.81 in    
Wind  
Wind Speed 4 mph (North)    
Max Wind Speed 12 mph    
Max Gust Speed 17 mph    
Visibility 5 miles    
Events Fog , Rain    
Averages and records for this station are not official NWS values.
T = Trace of Precipitation, MM = Missing Value Source: NWS Daily Summary

Daily Weather History Graph

Daily Weather History Graph

Search for Another Location

Airport or City:

Trip Planner

Search our weather history database for the weather conditions in past years. The results will help you decide how hot, cold, wet, or windy it might be!

Date:

Astronomy

Sep. 21, 2013 Rise Set
Actual Time 6:48 AM CDT 6:58 PM CDT
Civil Twilight 6:24 AM CDT 7:22 PM CDT
Nautical Twilight 5:55 AM CDT 7:51 PM CDT
Astronomical Twilight 5:26 AM CDT 8:20 PM CDT
Moon 8:20 PM CDT 8:56 AM CDT
Length of Visible Light 12h 58m
Length of Day
12h 09m
Waning Gibbous, 94% of the Moon is Illuminated
Sep 21
Waning Gibbous
Sep 26
Last Quarter
Oct 4
New
Oct 11
First Quarter
Oct 18
Full

Hourly Weather History & Observations

Time (CDT) Temp. Dew Point Humidity Pressure Visibility Wind Dir Wind Speed Gust Speed Precip Events Conditions
12:10 AM 75.2 °F 73.4 °F 94% 29.80 in 8.0 mi Calm Calm - 0.01 in Rain Light Rain
12:16 AM 75.2 °F 73.4 °F 94% 29.80 in 4.0 mi Calm Calm - 0.03 in Rain Rain
12:37 AM 75.2 °F 73.4 °F 94% 29.82 in 2.0 mi WNW 8.1 mph - 0.12 in Rain Heavy Rain
12:45 AM 73.4 °F 73.4 °F 100% 29.82 in 1.5 mi NW 5.8 mph - 0.19 in Rain Heavy Rain
12:53 AM 73.9 °F 73.0 °F 97% 29.80 in 1.2 mi West 9.2 mph - 0.31 in Rain Heavy Rain
1:03 AM 73.4 °F 71.6 °F 94% 29.81 in 0.5 mi WNW 11.5 mph - 0.39 in Fog , Rain Heavy Rain
1:14 AM 73.4 °F 71.6 °F 94% 29.82 in 0.8 mi West 11.5 mph - 0.73 in Rain Heavy Rain
1:28 AM 73.4 °F 71.6 °F 94% 29.81 in 0.8 mi West 6.9 mph - 1.02 in Rain Heavy Rain
1:35 AM 73.4 °F 71.6 °F 94% 29.81 in 1.0 mi WSW 6.9 mph - 1.11 in Rain Heavy Rain
1:43 AM 73.4 °F 71.6 °F 94% 29.80 in 0.5 mi West 8.1 mph - 1.41 in Fog , Rain Heavy Rain
1:53 AM 73.9 °F 72.0 °F 93% 29.79 in 0.8 mi WSW 11.5 mph - 1.70 in Rain Heavy Rain
2:10 AM 73.4 °F 71.6 °F 94% 29.80 in 1.0 mi West 4.6 mph - 0.30 in Rain Heavy Rain
2:22 AM 73.4 °F 71.6 °F 94% 29.80 in 3.0 mi WSW 6.9 mph - 0.33 in Rain Rain
2:35 AM 73.4 °F 71.6 °F 94% 29.79 in 2.0 mi Calm Calm - 0.38 in Rain Rain
2:44 AM 71.6 °F 69.8 °F 94% 29.79 in 1.8 mi Calm Calm - 0.41 in Rain Heavy Rain
2:53 AM 72.0 °F 70.0 °F 93% 29.76 in 2.5 mi Calm Calm - 0.43 in Rain Rain
3:01 AM 71.6 °F 69.8 °F 94% 29.79 in 4.0 mi SSW 3.5 mph - 0.02 in Rain Rain
3:43 AM 71.6 °F 69.8 °F 94% 29.78 in 10.0 mi Calm Calm - 0.05 in Rain Light Rain
3:53 AM 72.0 °F 70.0 °F 93% 29.76 in 10.0 mi SSE 3.5 mph - 0.05 in Rain Light Rain
4:28 AM 71.6 °F 69.8 °F 94% 29.79 in 5.0 mi Calm Calm - N/A   Overcast
4:53 AM 72.0 °F 70.0 °F 93% 29.77 in 3.0 mi SE 4.6 mph - 0.00 in Rain Light Rain
5:04 AM 71.6 °F 71.6 °F 100% 29.80 in 2.5 mi SSE 6.9 mph - 0.02 in Rain Rain
5:11 AM 71.6 °F 71.6 °F 100% 29.80 in 3.0 mi SSE 6.9 mph - 0.03 in Rain Rain
5:34 AM 71.6 °F 69.8 °F 94% 29.80 in 2.5 mi South 8.1 mph - 0.09 in Rain Heavy Rain
5:44 AM 71.6 °F 69.8 °F 94% 29.80 in 2.5 mi Calm Calm - 0.13 in Rain Heavy Rain
5:53 AM 72.0 °F 70.0 °F 93% 29.78 in 1.2 mi SW 3.5 mph - 0.22 in Rain Heavy Rain
6:11 AM 71.6 °F 69.8 °F 94% 29.80 in 2.5 mi Calm Calm - 0.12 in Rain Rain
6:19 AM 71.6 °F 69.8 °F 94% 29.80 in 5.0 mi Calm Calm - 0.13 in Rain Light Rain
6:23 AM 71.6 °F 69.8 °F 94% 29.80 in 4.0 mi Calm Calm - 0.14 in Rain Rain
6:33 AM 71.6 °F 69.8 °F 94% 29.81 in 1.8 mi Calm Calm - 0.19 in Rain Heavy Rain
6:51 AM 71.6 °F 69.8 °F 94% 29.81 in 1.5 mi Calm Calm - 0.30 in Rain Heavy Rain
6:53 AM 72.0 °F 70.0 °F 93% 29.79 in 1.8 mi Calm Calm - 0.31 in Rain Heavy Rain
6:59 AM 71.6 °F 69.8 °F 94% 29.81 in 2.5 mi Calm Calm - 0.02 in Rain Heavy Rain
7:09 AM 71.6 °F 69.8 °F 94% 29.82 in 1.8 mi Calm Calm - 0.06 in Rain Heavy Rain
7:11 AM 71.6 °F 69.8 °F 94% 29.82 in 2.0 mi Calm Calm - 0.06 in Rain Rain
7:25 AM 71.6 °F 69.8 °F 94% 29.82 in 1.2 mi West 3.5 mph - 0.12 in Rain Heavy Rain
7:53 AM 72.0 °F 70.0 °F 93% 29.80 in 2.0 mi Calm Calm - 0.22 in Rain Rain
7:58 AM 71.6 °F 69.8 °F 94% 29.82 in 3.0 mi Calm Calm - 0.01 in Rain Rain
8:14 AM 71.6 °F 69.8 °F 94% 29.82 in 1.8 mi NNW 6.9 mph - 0.03 in Rain Rain
8:24 AM 71.6 °F 69.8 °F 94% 29.83 in 2.0 mi NNW 5.8 mph - 0.04 in Rain Light Rain
8:34 AM 71.6 °F 69.8 °F 94% 29.83 in 4.0 mi North 9.2 mph - 0.04 in Rain Light Rain
8:42 AM 71.6 °F 69.8 °F 94% 29.83 in 2.5 mi NE 6.9 mph 17.3 mph 0.05 in Rain Light Rain
8:53 AM 71.1 °F 69.1 °F 93% 29.81 in 2.5 mi NNE 8.1 mph - 0.05 in Rain Light Rain
9:03 AM 71.6 °F 69.8 °F 94% 29.84 in 1.5 mi NNE 4.6 mph - 0.02 in Rain Rain
9:17 AM 71.6 °F 69.8 °F 94% 29.84 in 1.0 mi North 4.6 mph - 0.08 in Rain Rain
9:27 AM 71.6 °F 68.0 °F 88% 29.84 in 1.2 mi NNE 8.1 mph - 0.09 in Rain Rain
9:35 AM 71.6 °F 68.0 °F 88% 29.84 in 3.0 mi NNE 8.1 mph - 0.10 in Rain Light Rain
9:53 AM 71.1 °F 69.1 °F 93% 29.83 in 6.0 mi NNE 5.8 mph - 0.10 in Rain Light Rain
10:02 AM 71.6 °F 69.8 °F 94% 29.85 in 10.0 mi NNE 9.2 mph - 0.00 in Rain Light Rain
10:12 AM 71.6 °F 69.8 °F 94% 29.85 in 10.0 mi NNE 6.9 mph - 0.00 in   Overcast
10:26 AM 71.6 °F 69.8 °F 94% 29.86 in 8.0 mi NNE 5.8 mph - 0.00 in Rain Light Rain
10:53 AM 72.0 °F 69.1 °F 91% 29.83 in 9.0 mi Variable 5.8 mph - 0.00 in Rain Light Rain
11:53 AM 72.0 °F 69.1 °F 91% 29.83 in 9.0 mi NNE 6.9 mph - 0.01 in   Overcast
12:06 PM 71.6 °F 68.0 °F 88% 29.85 in 10.0 mi NNE 9.2 mph - N/A   Overcast
12:23 PM 73.4 °F 68.0 °F 83% 29.85 in 10.0 mi NNE 5.8 mph - N/A   Overcast
12:27 PM 73.4 °F 69.8 °F 88% 29.84 in 10.0 mi NNE 4.6 mph - N/A   Overcast
12:53 PM 73.0 °F 68.0 °F 84% 29.83 in 10.0 mi NE 8.1 mph - N/A   Overcast
1:11 PM 73.4 °F 68.0 °F 83% 29.84 in 10.0 mi NNE 8.1 mph - N/A   Overcast
1:53 PM 75.0 °F 66.9 °F 76% 29.81 in 10.0 mi NNE 8.1 mph - N/A   Overcast
2:19 PM 75.2 °F 66.2 °F 73% 29.82 in 10.0 mi Variable 6.9 mph - N/A   Overcast
2:40 PM 75.2 °F 66.2 °F 73% 29.82 in 10.0 mi NNE 6.9 mph - N/A   Overcast
2:53 PM 75.0 °F 66.9 °F 76% 29.79 in 10.0 mi NE 5.8 mph - N/A   Overcast
3:00 PM 77.0 °F 66.2 °F 69% 29.81 in 10.0 mi Variable 5.8 mph - N/A   Overcast
3:53 PM 78.1 °F 66.0 °F 66% 29.78 in 10.0 mi NE 9.2 mph - N/A   Mostly Cloudy
4:10 PM 78.8 °F 66.2 °F 65% 29.80 in 10.0 mi NE 8.1 mph - N/A   Scattered Clouds
4:53 PM 78.1 °F 66.0 °F 66% 29.77 in 10.0 mi NE 6.9 mph - N/A   Mostly Cloudy
5:53 PM 77.0 °F 66.0 °F 69% 29.77 in 10.0 mi North 3.5 mph - N/A   Mostly Cloudy
6:03 PM 77.0 °F 66.2 °F 69% 29.79 in 10.0 mi North 5.8 mph - N/A   Overcast
6:16 PM 75.2 °F 66.2 °F 73% 29.80 in 10.0 mi Variable 4.6 mph - N/A   Scattered Clouds
6:53 PM 75.0 °F 64.9 °F 71% 29.78 in 10.0 mi NNE 3.5 mph - N/A   Clear
7:53 PM 72.0 °F 64.9 °F 78% 29.79 in 10.0 mi Calm Calm - N/A   Clear
8:53 PM 71.1 °F 64.9 °F 81% 29.81 in 10.0 mi Calm Calm - N/A   Clear
9:53 PM 69.1 °F 64.0 °F 84% 29.82 in 10.0 mi Calm Calm - N/A   Clear
10:53 PM 68.0 °F 64.0 °F 87% 29.82 in 10.0 mi Calm Calm - N/A   Clear
11:53 PM 66.9 °F 60.1 °F 79% 29.83 in 10.0 mi NNE 3.5 mph - N/A   Clear